createdAt,value
2022-11-28T00:00:52.780Z,3.89
2022-11-28T00:03:39.752Z,3.90
2022-11-28T00:06:27.132Z,3.88
2022-11-28T00:09:14.620Z,3.80
2022-11-28T00:12:01.015Z,3.79
2022-11-28T00:14:48.137Z,3.79
2022-11-28T00:17:34.851Z,3.82
2022-11-28T00:20:21.355Z,3.82
2022-11-28T00:23:08.066Z,3.81
2022-11-28T00:25:58.880Z,3.78
2022-11-28T00:28:45.878Z,3.73
2022-11-28T00:31:35.948Z,3.62
2022-11-28T00:34:25.130Z,3.64
2022-11-28T00:37:11.734Z,3.66
2022-11-28T00:39:58.446Z,3.64
2022-11-28T00:42:44.840Z,3.63
2022-11-28T00:45:31.586Z,3.61
2022-11-28T00:48:18.483Z,3.57
2022-11-28T00:51:19.320Z,3.52
2022-11-28T00:54:06.422Z,3.42
2022-11-28T00:56:53.129Z,3.39
2022-11-28T00:59:39.424Z,3.33
2022-11-28T01:02:26.396Z,3.29
2022-11-28T01:05:13.565Z,3.24
2022-11-28T01:08:00.072Z,3.18
2022-11-28T01:10:46.874Z,3.11
2022-11-28T01:13:33.784Z,3.00
2022-11-28T01:16:20.541Z,2.92
2022-11-28T01:19:07.338Z,2.86
2022-11-28T01:21:53.923Z,2.80
2022-11-28T01:24:40.907Z,2.75
2022-11-28T01:27:28.038Z,2.77
2022-11-28T01:30:14.650Z,2.82
2022-11-28T01:33:01.454Z,2.83
2022-11-28T01:35:58.309Z,2.89
2022-11-28T01:38:45.527Z,2.96
2022-11-28T01:41:32.080Z,2.96
2022-11-28T01:44:18.841Z,2.96
2022-11-28T01:47:05.436Z,2.93
2022-11-28T01:49:51.848Z,2.88
2022-11-28T01:52:39.886Z,2.85
2022-11-28T01:55:27.526Z,2.81
2022-11-28T01:58:14.155Z,2.80
2022-11-28T02:01:00.925Z,2.83
2022-11-28T02:03:49.381Z,2.85
2022-11-28T02:06:35.987Z,2.89
2022-11-28T02:09:22.708Z,2.81
2022-11-28T02:12:22.804Z,2.73
2022-11-28T02:15:23.044Z,2.71
2022-11-28T02:18:24.901Z,2.67
2022-11-28T02:21:38.851Z,2.62
2022-11-28T02:24:51.815Z,2.59
2022-11-28T02:27:47.189Z,2.61
2022-11-28T02:30:53.244Z,2.58
2022-11-28T02:33:43.701Z,2.61
2022-11-28T02:36:32.603Z,2.57
2022-11-28T02:39:23.099Z,2.51
2022-11-28T02:42:18.514Z,2.44
2022-11-28T02:45:20.990Z,2.41
2022-11-28T02:48:11.161Z,2.43
2022-11-28T02:51:04.031Z,2.49
2022-11-28T02:53:50.647Z,2.48
2022-11-28T02:56:37.243Z,2.46
2022-11-28T02:59:33.147Z,2.44
2022-11-28T03:02:29.099Z,2.47
2022-11-28T03:05:47.444Z,2.40
2022-11-28T03:08:55.447Z,2.30
2022-11-28T03:12:03.764Z,2.26
2022-11-28T03:14:52.033Z,2.26
2022-11-28T03:17:53.974Z,2.22
2022-11-28T03:20:57.271Z,2.14
2022-11-28T03:23:49.210Z,2.09
2022-11-28T03:27:11.405Z,2.07
2022-11-28T03:30:04.468Z,2.06
2022-11-28T03:32:52.021Z,1.95
2022-11-28T03:35:41.439Z,1.90
2022-11-28T03:38:36.497Z,1.86
2022-11-28T03:41:36.407Z,1.90
2022-11-28T03:44:28.422Z,1.86
2022-11-28T03:47:14.939Z,1.86
2022-11-28T03:50:05.325Z,1.83
2022-11-28T03:53:14.793Z,1.82
2022-11-28T03:56:23.297Z,1.81
2022-11-28T03:59:13.578Z,1.85
2022-11-28T04:02:07.183Z,1.87
2022-11-28T04:04:59.411Z,1.84
2022-11-28T04:08:01.734Z,1.86
2022-11-28T04:10:51.359Z,1.87
2022-11-28T04:13:58.151Z,1.76
2022-11-28T04:16:58.615Z,1.78
2022-11-28T04:19:49.986Z,1.79
2022-11-28T04:22:45.726Z,1.80
2022-11-28T04:25:33.741Z,1.83
2022-11-28T04:28:22.709Z,1.87
2022-11-28T04:31:09.451Z,1.86
2022-11-28T04:33:59.985Z,1.84
2022-11-28T04:36:46.818Z,1.82
2022-11-28T04:39:33.474Z,1.86
2022-11-28T04:42:22.594Z,1.90
2022-11-28T04:45:12.614Z,1.96
2022-11-28T04:47:59.066Z,1.96
2022-11-28T04:51:07.704Z,1.90
2022-11-28T04:54:05.802Z,1.86
2022-11-28T04:56:58.934Z,1.92
2022-11-28T04:59:45.405Z,1.97
2022-11-28T05:02:32.095Z,1.96
2022-11-28T05:05:22.033Z,1.95
2022-11-28T05:08:08.540Z,1.94
2022-11-28T05:10:55.298Z,1.96
2022-11-28T05:13:41.938Z,2.00
2022-11-28T05:16:28.471Z,2.01
2022-11-28T05:19:16.085Z,2.04
2022-11-28T05:22:03.000Z,2.02
2022-11-28T05:24:49.701Z,2.00
2022-11-28T05:27:36.597Z,1.99
2022-11-28T05:30:23.424Z,1.96
2022-11-28T05:33:10.230Z,1.93
2022-11-28T05:35:57.968Z,1.98
2022-11-28T05:38:44.883Z,1.98
2022-11-28T05:41:32.050Z,1.97
2022-11-28T05:44:21.675Z,1.98
2022-11-28T05:47:12.382Z,2.00
2022-11-28T05:49:59.354Z,2.03
2022-11-28T05:52:45.998Z,2.06
2022-11-28T05:55:32.547Z,2.09
2022-11-28T05:58:19.434Z,2.09
2022-11-28T06:01:17.272Z,2.05
2022-11-28T06:04:04.484Z,2.00
2022-11-28T06:06:51.427Z,2.01
2022-11-28T06:09:38.453Z,1.99
2022-11-28T06:12:25.271Z,1.99
2022-11-28T06:15:12.159Z,1.98
2022-11-28T06:17:58.765Z,2.01
2022-11-28T06:20:45.398Z,2.01
2022-11-28T06:23:32.181Z,2.01
2022-11-28T06:26:20.481Z,1.99
2022-11-28T06:29:06.746Z,1.98
2022-11-28T06:31:53.653Z,2.00
2022-11-28T06:34:40.448Z,2.00
2022-11-28T06:37:27.155Z,1.97
2022-11-28T06:40:14.221Z,1.99
2022-11-28T06:43:00.778Z,1.98
2022-11-28T06:45:47.459Z,1.99
2022-11-28T06:48:33.986Z,2.04
2022-11-28T06:51:20.999Z,2.10
2022-11-28T06:54:07.920Z,2.17
2022-11-28T06:56:54.245Z,2.23
2022-11-28T06:59:41.121Z,2.31
2022-11-28T07:02:28.039Z,2.34
2022-11-28T07:05:16.810Z,2.36
2022-11-28T07:08:03.409Z,2.40
2022-11-28T07:10:50.326Z,2.46
2022-11-28T07:13:37.066Z,2.52
2022-11-28T07:16:25.589Z,2.58
2022-11-28T07:19:12.899Z,2.63
2022-11-28T07:21:59.408Z,2.67
2022-11-28T07:24:46.723Z,2.75
2022-11-28T07:27:33.323Z,2.79
2022-11-28T07:30:20.325Z,2.80
2022-11-28T07:33:07.257Z,2.89
2022-11-28T07:35:54.269Z,2.98
2022-11-28T07:38:40.874Z,3.02
2022-11-28T07:41:27.997Z,2.98
2022-11-28T07:44:17.980Z,3.02
2022-11-28T07:47:05.029Z,2.92
2022-11-28T07:49:51.807Z,2.91
2022-11-28T07:52:38.200Z,2.93
2022-11-28T07:55:25.120Z,3.00
2022-11-28T07:58:11.451Z,2.94
2022-11-28T08:00:58.517Z,2.94
2022-11-28T08:03:46.163Z,2.87
2022-11-28T08:06:35.842Z,2.92
2022-11-28T08:09:22.861Z,3.00
2022-11-28T08:12:09.537Z,2.93
2022-11-28T08:14:55.941Z,2.89
2022-11-28T08:17:42.754Z,2.92
2022-11-28T08:20:29.277Z,2.92
2022-11-28T08:23:16.143Z,2.96
2022-11-28T08:26:03.928Z,3.07
2022-11-28T08:28:51.762Z,3.09
2022-11-28T08:31:38.560Z,3.18
2022-11-28T08:34:25.584Z,3.17
2022-11-28T08:37:12.406Z,3.14
2022-11-28T08:39:58.868Z,3.15
2022-11-28T08:42:45.714Z,3.15
2022-11-28T08:45:32.297Z,3.18
2022-11-28T08:48:19.231Z,3.17
2022-11-28T08:51:06.598Z,3.16
2022-11-28T08:53:59.031Z,3.19
2022-11-28T08:56:47.621Z,3.29
2022-11-28T08:59:33.845Z,3.42
2022-11-28T09:02:25.677Z,3.48
2022-11-28T09:05:12.685Z,3.54
2022-11-28T09:07:59.445Z,3.64
2022-11-28T09:10:46.311Z,3.83
2022-11-28T09:13:33.141Z,3.93
2022-11-28T09:16:19.757Z,3.97
2022-11-28T09:19:09.212Z,4.02
2022-11-28T09:21:57.863Z,4.18
2022-11-28T09:24:44.964Z,4.35
2022-11-28T09:27:31.681Z,4.36
2022-11-28T09:30:21.970Z,4.29
2022-11-28T09:33:08.562Z,4.33
2022-11-28T09:35:55.693Z,4.37
2022-11-28T09:38:42.283Z,4.41
2022-11-28T09:41:28.770Z,4.52
2022-11-28T09:44:20.340Z,4.69
2022-11-28T09:47:12.563Z,4.91
2022-11-28T09:50:16.715Z,5.32
2022-11-28T09:53:17.463Z,5.59
2022-11-28T09:56:09.447Z,5.51
2022-11-28T09:58:59.009Z,5.56
2022-11-28T10:01:54.742Z,5.52
2022-11-28T10:04:53.569Z,5.57
2022-11-28T10:07:54.944Z,5.69
2022-11-28T10:10:49.069Z,5.67
2022-11-28T10:14:06.649Z,5.82
2022-11-28T10:17:03.023Z,5.72
2022-11-28T10:19:55.107Z,5.87
2022-11-28T10:22:52.456Z,5.95
2022-11-28T10:25:41.670Z,5.80
2022-11-28T10:28:38.856Z,5.71
2022-11-28T10:31:28.658Z,5.79
2022-11-28T10:34:18.919Z,5.74
2022-11-28T10:37:07.366Z,5.62
2022-11-28T10:39:54.078Z,5.60
2022-11-28T10:43:06.691Z,5.65
2022-11-28T10:45:57.951Z,5.75
2022-11-28T10:48:59.954Z,5.91
2022-11-28T10:51:56.204Z,5.97
2022-11-28T10:54:55.415Z,5.93
2022-11-28T10:57:54.457Z,6.02
2022-11-28T11:00:40.756Z,6.04
2022-11-28T11:03:29.662Z,5.97
2022-11-28T11:06:16.580Z,5.84
2022-11-28T11:09:03.499Z,5.76
2022-11-28T11:11:55.314Z,5.65
2022-11-28T11:14:41.720Z,5.63
2022-11-28T11:17:36.724Z,5.56
2022-11-28T11:20:23.118Z,5.58
2022-11-28T11:23:20.901Z,5.63
2022-11-28T11:26:10.525Z,5.65
2022-11-28T11:28:57.345Z,5.60
2022-11-28T11:31:44.379Z,5.62
2022-11-28T11:34:35.469Z,5.61
2022-11-28T11:37:32.260Z,5.63
2022-11-28T11:40:24.635Z,5.63
2022-11-28T11:43:31.158Z,5.62
2022-11-28T11:46:18.299Z,5.72
2022-11-28T11:49:04.982Z,5.77
2022-11-28T11:51:56.245Z,5.78
2022-11-28T11:54:58.397Z,5.77
2022-11-28T11:57:47.838Z,5.76
2022-11-28T12:00:40.592Z,5.77
2022-11-28T12:03:31.599Z,5.75
2022-11-28T12:06:23.538Z,5.84
2022-11-28T12:09:36.370Z,5.91
2022-11-28T12:12:24.869Z,5.84
2022-11-28T12:15:39.909Z,5.79
2022-11-28T12:18:59.965Z,5.78
2022-11-28T12:21:55.583Z,5.84
2022-11-28T12:24:49.311Z,5.86
2022-11-28T12:27:42.004Z,5.88
2022-11-28T12:31:09.296Z,5.88
2022-11-28T12:34:11.025Z,5.88
2022-11-28T12:37:09.716Z,5.88
2022-11-28T12:40:00.522Z,5.82
2022-11-28T12:43:20.824Z,5.74
2022-11-28T12:46:33.740Z,5.73
2022-11-28T12:50:02.533Z,5.68
2022-11-28T12:53:01.218Z,5.59
2022-11-28T12:56:09.840Z,5.52
2022-11-28T12:59:15.239Z,5.51
2022-11-28T13:02:26.659Z,5.48
2022-11-28T13:05:22.991Z,5.44
2022-11-28T13:08:18.419Z,5.36
2022-11-28T13:11:38.684Z,5.30
2022-11-28T13:14:30.543Z,5.22
2022-11-28T13:17:35.933Z,5.20
2022-11-28T13:20:45.127Z,5.14
2022-11-28T13:23:42.583Z,5.10
2022-11-28T13:26:50.738Z,5.06
2022-11-28T13:29:46.103Z,5.00
2022-11-28T13:32:59.319Z,4.96
2022-11-28T13:35:45.999Z,4.94
2022-11-28T13:39:11.312Z,4.93
2022-11-28T13:43:04.308Z,4.93
2022-11-28T13:45:31.696Z,4.92
2022-11-28T13:48:57.635Z,4.91
2022-11-28T13:51:40.733Z,4.86
2022-11-28T13:54:28.174Z,4.81
2022-11-28T13:57:21.613Z,4.81
2022-11-28T14:00:22.670Z,4.80
2022-11-28T14:03:19.136Z,4.77
2022-11-28T14:06:06.007Z,4.71
2022-11-28T14:09:06.031Z,4.66
2022-11-28T14:12:07.859Z,4.57
2022-11-28T14:15:12.576Z,4.49
2022-11-28T14:18:55.537Z,4.45
2022-11-28T14:21:54.600Z,4.43
2022-11-28T14:24:44.288Z,4.36
2022-11-28T14:27:35.136Z,4.30
2022-11-28T14:30:32.200Z,4.26
2022-11-28T14:33:20.118Z,4.19
2022-11-28T14:36:23.934Z,4.15
2022-11-28T14:39:13.270Z,4.13
2022-11-28T14:42:06.049Z,4.11
2022-11-28T14:44:53.588Z,4.07
2022-11-28T14:47:42.947Z,4.00
2022-11-28T14:50:29.396Z,3.96
2022-11-28T14:53:37.050Z,3.89
2022-11-28T14:56:28.119Z,3.87
2022-11-28T14:59:15.070Z,3.85
2022-11-28T15:02:27.439Z,3.85
2022-11-28T15:05:26.563Z,3.83
2022-11-28T15:08:32.548Z,3.80
2022-11-28T15:11:47.557Z,3.76
2022-11-28T15:14:34.118Z,3.74
2022-11-28T15:17:23.767Z,3.76
2022-11-28T15:20:32.078Z,3.78
2022-11-28T15:23:26.496Z,3.80
2022-11-28T15:26:27.335Z,3.82
2022-11-28T15:29:22.710Z,3.82
2022-11-28T15:32:12.536Z,3.83
2022-11-28T15:35:06.551Z,3.79
2022-11-28T15:37:58.369Z,3.81
2022-11-28T15:40:50.246Z,3.85
2022-11-28T15:43:37.888Z,3.87
2022-11-28T15:46:31.301Z,3.90
2022-11-28T15:49:30.151Z,3.93
2022-11-28T15:52:18.511Z,3.93
2022-11-28T15:55:17.910Z,3.92
2022-11-28T15:58:21.498Z,3.90
2022-11-28T16:01:22.581Z,3.90
2022-11-28T16:04:15.883Z,3.92
2022-11-28T16:07:02.829Z,3.91
2022-11-28T16:09:58.447Z,3.90
2022-11-28T16:12:45.052Z,3.91
2022-11-28T16:15:32.272Z,3.92
2022-11-28T16:18:18.881Z,3.94
2022-11-28T16:21:05.774Z,3.96
2022-11-28T16:23:52.326Z,3.97
2022-11-28T16:26:39.003Z,3.98
2022-11-28T16:29:34.423Z,3.98
2022-11-28T16:32:26.143Z,3.98
2022-11-28T16:35:12.587Z,3.98
2022-11-28T16:38:06.944Z,4.00
2022-11-28T16:40:59.781Z,3.98
2022-11-28T16:43:49.459Z,3.97
2022-11-28T16:46:38.834Z,3.96
2022-11-28T16:49:39.570Z,3.99
2022-11-28T16:52:25.967Z,4.01
2022-11-28T16:55:31.752Z,4.00
2022-11-28T16:58:22.029Z,4.02
2022-11-28T17:01:08.651Z,4.00
2022-11-28T17:03:58.096Z,4.00
2022-11-28T17:06:44.907Z,4.03
2022-11-28T17:09:34.014Z,4.02
2022-11-28T17:12:28.039Z,3.99
2022-11-28T17:15:15.865Z,3.94
2022-11-28T17:18:02.384Z,3.89
2022-11-28T17:20:48.890Z,3.88
2022-11-28T17:23:35.366Z,3.87
2022-11-28T17:26:21.926Z,3.89
2022-11-28T17:29:10.752Z,3.88
2022-11-28T17:31:58.961Z,3.86
2022-11-28T17:34:46.219Z,3.86
2022-11-28T17:37:33.710Z,3.88
2022-11-28T17:40:36.860Z,3.90
2022-11-28T17:43:23.587Z,3.87
2022-11-28T17:46:10.308Z,3.85
2022-11-28T17:48:59.264Z,3.82
2022-11-28T17:51:45.930Z,3.79
2022-11-28T17:54:32.327Z,3.79
2022-11-28T17:57:18.925Z,3.78
2022-11-28T18:00:06.720Z,3.74
2022-11-28T18:02:53.680Z,3.69
2022-11-28T18:05:41.359Z,3.64
2022-11-28T18:08:28.020Z,3.61
2022-11-28T18:11:15.034Z,3.58
2022-11-28T18:14:01.540Z,3.53
2022-11-28T18:16:48.282Z,3.49
2022-11-28T18:19:35.022Z,3.45
2022-11-28T18:22:21.763Z,3.39
2022-11-28T18:25:09.414Z,3.37
2022-11-28T18:27:55.946Z,3.37
2022-11-28T18:30:44.249Z,3.41
2022-11-28T18:33:30.656Z,3.38
2022-11-28T18:36:21.948Z,3.40
2022-11-28T18:39:11.606Z,3.39
2022-11-28T18:42:00.199Z,3.37
2022-11-28T18:44:46.594Z,3.35
2022-11-28T18:47:35.246Z,3.35
2022-11-28T18:50:21.880Z,3.36
2022-11-28T18:53:08.465Z,3.33
2022-11-28T18:56:03.210Z,3.27
2022-11-28T18:58:51.911Z,3.21
2022-11-28T19:01:38.555Z,3.14
2022-11-28T19:04:25.326Z,3.10
2022-11-28T19:07:12.342Z,3.12
2022-11-28T19:09:58.880Z,3.11
2022-11-28T19:12:45.757Z,3.10
2022-11-28T19:15:32.565Z,3.06
2022-11-28T19:18:19.274Z,3.01
2022-11-28T19:21:10.593Z,2.99
2022-11-28T19:23:57.915Z,2.99
2022-11-28T19:26:44.640Z,2.99
2022-11-28T19:29:31.037Z,2.97
2022-11-28T19:32:18.168Z,2.94
2022-11-28T19:35:05.160Z,2.94
2022-11-28T19:37:51.968Z,2.95
2022-11-28T19:40:38.447Z,2.97
2022-11-28T19:43:25.143Z,3.02
2022-11-28T19:46:12.583Z,3.00
2022-11-28T19:48:59.369Z,3.01
2022-11-28T19:51:46.597Z,3.02
2022-11-28T19:54:33.794Z,3.06
2022-11-28T19:57:20.871Z,3.06
2022-11-28T20:00:08.367Z,3.05
2022-11-28T20:02:55.313Z,3.08
2022-11-28T20:05:42.134Z,3.06
2022-11-28T20:08:29.122Z,3.09
2022-11-28T20:11:18.107Z,3.08
2022-11-28T20:14:11.465Z,3.07
2022-11-28T20:17:01.057Z,3.07
2022-11-28T20:19:48.365Z,3.03
2022-11-28T20:22:37.530Z,3.00
2022-11-28T20:25:24.260Z,3.02
2022-11-28T20:28:10.863Z,3.01
2022-11-28T20:30:57.351Z,3.02
2022-11-28T20:33:44.463Z,2.99
2022-11-28T20:36:31.706Z,2.98
2022-11-28T20:39:18.663Z,2.96
2022-11-28T20:42:06.127Z,2.96
2022-11-28T20:44:52.625Z,2.99
2022-11-28T20:47:39.432Z,3.01
2022-11-28T20:50:26.361Z,3.03
2022-11-28T20:53:13.258Z,3.03
2022-11-28T20:56:01.303Z,3.03
2022-11-28T20:58:48.231Z,3.04
2022-11-28T21:01:36.107Z,3.04
2022-11-28T21:04:22.713Z,3.09
2022-11-28T21:07:09.045Z,3.13
2022-11-28T21:10:00.006Z,3.15
2022-11-28T21:12:46.728Z,3.14
2022-11-28T21:15:33.686Z,3.13
2022-11-28T21:18:20.176Z,3.10
2022-11-28T21:21:11.503Z,3.08
2022-11-28T21:23:59.897Z,3.10
2022-11-28T21:26:53.045Z,3.09
2022-11-28T21:29:40.797Z,3.06
2022-11-28T21:32:27.544Z,3.03
2022-11-28T21:35:14.338Z,2.99
2022-11-28T21:38:01.281Z,2.96
2022-11-28T21:40:54.337Z,2.94
2022-11-28T21:43:40.947Z,2.94
2022-11-28T21:46:27.856Z,2.95
2022-11-28T21:49:14.565Z,2.98
2022-11-28T21:52:02.178Z,2.98
2022-11-28T21:54:50.788Z,2.97
2022-11-28T21:57:37.697Z,2.95
2022-11-28T22:00:45.924Z,2.92
2022-11-28T22:03:31.169Z,2.95
2022-11-28T22:06:22.357Z,2.99
2022-11-28T22:09:09.976Z,3.00
2022-11-28T22:11:57.117Z,3.00
2022-11-28T22:14:43.685Z,3.01
2022-11-28T22:17:32.694Z,3.00
2022-11-28T22:20:19.168Z,3.00
2022-11-28T22:23:07.022Z,3.04
2022-11-28T22:25:53.640Z,3.10
2022-11-28T22:28:41.605Z,3.10
2022-11-28T22:31:28.250Z,3.08
2022-11-28T22:34:14.914Z,3.05
2022-11-28T22:37:01.632Z,3.03
2022-11-28T22:39:48.463Z,3.02
2022-11-28T22:42:34.785Z,3.05
2022-11-28T22:45:21.432Z,3.07
2022-11-28T22:48:07.906Z,3.10
2022-11-28T22:50:54.822Z,3.08
2022-11-28T22:53:41.621Z,3.03
2022-11-28T22:56:28.852Z,2.98
2022-11-28T22:59:16.167Z,2.98
2022-11-28T23:02:03.477Z,2.96
2022-11-28T23:04:50.399Z,2.94
2022-11-28T23:07:36.948Z,2.95
2022-11-28T23:10:23.716Z,2.92
2022-11-28T23:13:10.419Z,2.90
2022-11-28T23:15:56.705Z,2.90
2022-11-28T23:18:43.888Z,2.88
2022-11-28T23:21:32.693Z,2.90
2022-11-28T23:24:21.355Z,2.89
2022-11-28T23:27:07.737Z,2.85
2022-11-28T23:29:54.133Z,2.86
2022-11-28T23:32:40.658Z,2.85
2022-11-28T23:35:27.962Z,2.86
2022-11-28T23:38:15.821Z,2.87
2022-11-28T23:41:02.374Z,2.82
2022-11-28T23:43:49.120Z,2.79
2022-11-28T23:46:35.938Z,2.77
2022-11-28T23:49:22.849Z,2.76
2022-11-28T23:52:09.557Z,2.77
2022-11-28T23:54:56.034Z,2.77
2022-11-28T23:57:42.707Z,2.81
